Time;durP1;ratioP1;P1;durP2;ratioP2;P2;SDS_P1;SDS_P2;PMS_P1;PMS_P2;Temp;Humidity;BMP_temperature;BMP_pressure;BME280_temperature;BME280_humidity;BME280_pressure;Samples;Min_cycle;Max_cycle;Signal;HPM_P1;HPM_P2
2023/10/31 00:02:01;;;;;;;11.68;5.75;;;;;;;14.83;100.00;97759.53;4468176;32;20089;-77
2023/10/31 00:04:30;;;;;;;12.57;5.47;;;;;;;14.84;100.00;97755.91;4468125;32;20104;-77
2023/10/31 00:06:57;;;;;;;13.18;6.05;;;;;;;14.86;100.00;97761.78;4468136;32;20089;-77
2023/10/31 00:09:24;;;;;;;12.48;6.18;;;;;;;14.83;100.00;97762.97;4468083;32;20595;-77
2023/10/31 00:11:52;;;;;;;14.70;5.95;;;;;;;14.88;100.00;97757.97;4468236;32;20115;-78
2023/10/31 00:14:21;;;;;;;13.23;5.90;;;;;;;14.78;100.00;97752.19;4467883;32;20101;-78
2023/10/31 00:16:59;;;;;;;10.10;5.85;;;;;;;14.75;100.00;97751.72;4476840;32;20092;-78
2023/10/31 00:19:26;;;;;;;10.32;5.87;;;;;;;14.68;100.00;97754.31;4483273;31;20149;-78
2023/10/31 00:21:54;;;;;;;10.48;6.05;;;;;;;14.67;100.00;97757.94;4483441;31;20122;-78
2023/10/31 00:24:22;;;;;;;14.50;6.32;;;;;;;14.71;100.00;97738.13;4483466;32;20256;-78
2023/10/31 00:26:50;;;;;;;14.80;7.05;;;;;;;14.71;100.00;97740.75;4483375;32;20122;-78
2023/10/31 00:29:17;;;;;;;12.13;6.15;;;;;;;14.78;100.00;97732.94;4471693;32;20172;-77
2023/10/31 00:31:45;;;;;;;11.70;6.30;;;;;;;14.73;100.00;97734.31;4469919;32;20123;-78
2023/10/31 00:34:13;;;;;;;12.68;6.55;;;;;;;14.78;100.00;97725.03;4469652;32;20171;-77
2023/10/31 00:36:42;;;;;;;11.63;6.03;;;;;;;14.70;100.00;97718.88;4468849;32;20561;-78
2023/10/31 00:39:10;;;;;;;12.48;6.47;;;;;;;14.68;100.00;97715.59;4470098;32;20093;-78
2023/10/31 00:41:39;;;;;;;9.77;6.03;;;;;;;14.67;99.97;97719.25;4470160;32;20149;-77
2023/10/31 00:44:09;;;;;;;11.48;6.07;;;;;;;14.69;99.65;97721.69;4469938;32;20149;-77
2023/10/31 00:46:37;;;;;;;11.63;6.10;;;;;;;14.65;100.00;97709.88;4470075;32;20587;-78
2023/10/31 00:49:05;;;;;;;11.43;6.12;;;;;;;14.63;100.00;97704.00;4469685;32;20141;-77
2023/10/31 00:51:32;;;;;;;13.25;6.30;;;;;;;14.59;100.00;97706.16;4469898;32;20142;-77
2023/10/31 00:54:00;;;;;;;15.13;6.07;;;;;;;14.61;100.00;97688.38;4469763;32;20085;-78
2023/10/31 00:56:28;;;;;;;14.48;6.22;;;;;;;14.64;100.00;97693.28;4469879;32;20104;-77
2023/10/31 00:58:55;;;;;;;8.52;5.75;;;;;;;14.57;100.00;97686.28;4469620;32;20131;-78
2023/10/31 01:01:23;;;;;;;12.27;6.53;;;;;;;14.54;100.00;97692.72;4469674;32;20163;-78
2023/10/31 01:03:51;;;;;;;13.90;6.15;;;;;;;14.56;99.99;97674.91;4469818;32;20151;-78
2023/10/31 01:06:19;;;;;;;11.18;5.28;;;;;;;14.54;99.94;97669.81;4469734;32;20096;-78
2023/10/31 01:08:47;;;;;;;14.77;5.80;;;;;;;14.60;97.69;97676.16;4469573;32;20474;-78
2023/10/31 01:11:15;;;;;;;9.68;5.60;;;;;;;14.72;96.68;97669.41;4469683;32;20092;-78
2023/10/31 01:13:42;;;;;;;13.60;4.93;;;;;;;14.76;96.06;97667.22;4469617;32;20762;-78
2023/10/31 01:16:10;;;;;;;9.90;5.78;;;;;;;14.80;94.88;97668.44;4473487;32;20127;-78
2023/10/31 01:18:39;;;;;;;12.75;5.25;;;;;;;14.90;93.05;97653.09;4485205;31;20092;-78
2023/10/31 01:21:09;;;;;;;13.93;5.95;;;;;;;15.02;93.10;97655.22;4485205;32;20088;-78
2023/10/31 01:23:37;;;;;;;9.27;5.10;;;;;;;15.00;92.46;97659.84;4485222;31;20089;-78
2023/10/31 01:26:05;;;;;;;12.73;5.62;;;;;;;15.01;92.99;97649.12;4485452;32;20089;-78
2023/10/31 01:28:35;;;;;;;13.00;6.25;;;;;;;14.99;92.89;97648.50;4476209;31;20096;-78
2023/10/31 01:31:03;;;;;;;10.82;5.50;;;;;;;15.02;93.74;97652.59;4469787;32;20097;-78
2023/10/31 01:33:32;;;;;;;11.88;5.68;;;;;;;14.91;94.30;97643.34;4469347;32;20490;-78
2023/10/31 01:35:59;;;;;;;14.95;6.12;;;;;;;14.95;95.14;97639.34;4469471;32;20454;-78
2023/10/31 01:38:27;;;;;;;13.68;7.10;;;;;;;14.86;95.32;97636.03;4469476;32;20084;-78
2023/10/31 01:40:55;;;;;;;13.40;6.32;;;;;;;14.94;95.23;97634.25;4468360;32;20092;-78
2023/10/31 01:43:33;;;;;;;12.98;6.65;;;;;;;14.85;95.81;97625.66;4469504;32;20162;-78
2023/10/31 01:46:02;;;;;;;15.43;6.35;;;;;;;14.82;96.54;97623.41;4469804;32;20115;-78
2023/10/31 01:48:31;;;;;;;13.85;6.22;;;;;;;14.80;95.38;97618.34;4468226;32;20600;-78
2023/10/31 01:51:00;;;;;;;14.05;6.10;;;;;;;14.81;94.55;97613.91;4469401;32;20092;-78
2023/10/31 01:53:28;;;;;;;11.32;5.37;;;;;;;14.79;94.93;97618.53;4468199;32;20135;-78
2023/10/31 01:55:56;;;;;;;17.45;6.15;;;;;;;14.84;94.85;97611.69;4469306;32;20151;-78
2023/10/31 01:58:28;;;;;;;10.27;5.32;;;;;;;14.83;94.76;97617.94;4469393;32;20123;-78
2023/10/31 02:00:57;;;;;;;11.18;5.65;;;;;;;14.88;95.58;97615.56;4469472;32;20442;-78
2023/10/31 02:03:25;;;;;;;13.55;6.03;;;;;;;14.82;94.84;97618.16;4469335;32;20138;-78
2023/10/31 02:05:54;;;;;;;12.52;6.45;;;;;;;14.77;94.88;97610.00;4468035;32;20105;-78
2023/10/31 02:08:21;;;;;;;11.40;5.68;;;;;;;14.80;94.18;97601.72;4468027;32;20523;-78
2023/10/31 02:10:50;;;;;;;11.85;5.80;;;;;;;14.80;94.38;97602.53;4469301;32;20089;-78
2023/10/31 02:13:19;;;;;;;14.25;5.70;;;;;;;14.73;95.27;97596.38;4469257;32;20421;-78
2023/10/31 02:15:46;;;;;;;12.50;6.20;;;;;;;14.82;95.45;97591.78;4470481;32;20168;-78
2023/10/31 02:18:14;;;;;;;15.65;6.97;;;;;;;14.66;95.78;97590.28;4484782;32;20127;-78
2023/10/31 02:20:43;;;;;;;15.15;6.53;;;;;;;14.70;96.34;97589.69;4484729;31;20092;-78
2023/10/31 02:23:10;;;;;;;9.65;5.50;;;;;;;14.60;96.80;97581.28;4483405;32;20096;-78
2023/10/31 02:25:39;;;;;;;13.95;6.20;;;;;;;14.64;97.09;97582.56;4483501;32;20197;-78
2023/10/31 02:28:07;;;;;;;12.05;6.28;;;;;;;14.62;96.62;97589.81;4479042;31;20169;-78
2023/10/31 02:30:35;;;;;;;10.23;6.12;;;;;;;14.38;98.45;97583.97;4468992;32;20101;-78
2023/10/31 02:33:14;;;;;;;12.45;5.70;;;;;;;14.50;97.30;97588.69;4469179;32;20085;-78
2023/10/31 02:35:42;;;;;;;13.05;6.37;;;;;;;14.51;97.12;97585.06;4469005;32;20097;-77
2023/10/31 02:38:10;;;;;;;12.27;6.05;;;;;;;14.59;96.78;97582.28;4469192;32;20093;-77
2023/10/31 02:40:38;;;;;;;16.80;6.20;;;;;;;14.56;95.78;97572.13;4468893;32;20138;-78
2023/10/31 02:43:05;;;;;;;13.10;6.57;;;;;;;14.55;96.07;97573.12;4469095;32;20639;-78
2023/10/31 02:45:34;;;;;;;11.32;6.25;;;;;;;14.57;96.83;97586.94;4469090;32;20221;-78
2023/10/31 02:48:01;;;;;;;18.08;6.47;;;;;;;14.46;97.17;97580.38;4469162;32;20455;-78
2023/10/31 02:50:29;;;;;;;12.93;6.40;;;;;;;14.50;97.75;97586.91;4468398;32;20112;-78
2023/10/31 02:52:57;;;;;;;14.55;6.50;;;;;;;14.45;97.38;97584.00;4469048;32;20119;-78
2023/10/31 02:55:25;;;;;;;13.25;5.75;;;;;;;14.48;98.08;97596.00;4469029;32;20107;-78
2023/10/31 02:57:52;;;;;;;12.43;6.47;;;;;;;14.33;98.73;97588.97;4468891;32;20176;-78
2023/10/31 03:00:21;;;;;;;12.90;6.10;;;;;;;14.41;98.80;97589.84;4468663;32;20488;-78
2023/10/31 03:02:54;;;;;;;10.10;5.45;;;;;;;14.24;99.28;97578.78;4468863;32;20150;-78
2023/10/31 03:05:22;;;;;;;10.35;5.87;;;;;;;14.31;98.74;97572.53;4468814;32;20165;-78
2023/10/31 03:07:50;;;;;;;10.57;5.95;;;;;;;14.28;98.87;97578.19;4469093;32;20457;-78
2023/10/31 03:10:19;;;;;;;18.70;6.55;;;;;;;14.36;98.11;97580.69;4468496;32;20165;-78
2023/10/31 03:12:47;;;;;;;13.07;5.87;;;;;;;14.33;98.84;97582.91;4468843;32;20162;-78
2023/10/31 03:15:16;;;;;;;11.80;5.53;;;;;;;14.38;98.21;97583.13;4468610;32;20210;-78
2023/10/31 03:17:44;;;;;;;12.88;5.65;;;;;;;14.36;97.93;97585.94;4482826;32;20096;-78
2023/10/31 03:20:12;;;;;;;9.35;5.37;;;;;;;14.39;98.49;97582.12;4484447;32;20122;-78
2023/10/31 03:22:40;;;;;;;13.30;6.45;;;;;;;14.38;97.84;97591.87;4484295;32;20120;-78
2023/10/31 03:25:09;;;;;;;8.48;5.43;;;;;;;14.34;97.70;97595.06;4484533;32;20159;-77
2023/10/31 03:27:38;;;;;;;11.82;5.87;;;;;;;14.40;97.50;97604.00;4481578;32;20143;-78
2023/10/31 03:30:06;;;;;;;10.55;5.43;;;;;;;14.33;99.29;97622.41;4468686;32;20134;-78
2023/10/31 03:32:33;;;;;;;10.98;5.70;;;;;;;14.24;100.00;97611.19;4468442;32;20092;-77
2023/10/31 03:35:03;;;;;;;10.23;5.65;;;;;;;14.34;99.80;97619.59;4468300;32;20080;-77
2023/10/31 03:37:31;;;;;;;12.20;6.20;;;;;;;14.05;100.00;97606.53;4468294;32;20109;-77
2023/10/31 03:39:58;;;;;;;9.80;4.95;;;;;;;14.02;100.00;97613.81;4468436;32;20797;-77
2023/10/31 03:42:26;;;;;;;9.98;4.87;;;;;;;14.09;100.00;97626.25;4468663;32;20118;-77
2023/10/31 03:44:56;;;;;;;9.00;5.32;;;;;;;13.98;100.00;97624.94;4468184;32;20291;-77
2023/10/31 03:47:23;;;;;;;11.75;5.62;;;;;;;14.03;100.00;97619.91;4468437;32;20088;-77
2023/10/31 03:49:51;;;;;;;9.57;5.55;;;;;;;13.97;100.00;97610.94;4468045;32;20470;-77
2023/10/31 03:52:19;;;;;;;11.70;5.03;;;;;;;14.02;100.00;97616.47;4468083;32;20151;-77
2023/10/31 03:54:49;;;;;;;12.05;5.80;;;;;;;13.88;100.00;97609.41;4468156;32;20080;-77
2023/10/31 03:57:16;;;;;;;10.55;5.35;;;;;;;13.95;100.00;97618.19;4467971;32;20101;-77
2023/10/31 03:59:44;;;;;;;11.50;5.95;;;;;;;13.99;100.00;97616.84;4468078;32;20093;-77
2023/10/31 04:02:12;;;;;;;9.85;5.68;;;;;;;13.92;100.00;97617.78;4467881;32;20097;-77
2023/10/31 04:04:39;;;;;;;11.12;5.05;;;;;;;13.94;100.00;97616.56;4470079;32;20145;-77
2023/10/31 04:07:07;;;;;;;12.23;5.22;;;;;;;13.86;100.00;97626.41;4470079;32;20111;-77
2023/10/31 04:09:34;;;;;;;12.20;5.43;;;;;;;13.87;100.00;97610.44;4470050;32;20152;-77
2023/10/31 04:12:03;;;;;;;10.45;5.43;;;;;;;13.97;100.00;97612.75;4469929;32;20119;-77
2023/10/31 04:14:30;;;;;;;10.82;4.62;;;;;;;14.07;100.00;97620.34;4470012;32;20477;-78
2023/10/31 04:16:58;;;;;;;10.68;5.43;;;;;;;14.01;100.00;97614.81;4478902;32;20101;-78
2023/10/31 04:19:25;;;;;;;8.90;4.10;;;;;;;14.10;100.00;97602.34;4485802;32;20480;-78
2023/10/31 04:21:54;;;;;;;7.20;4.50;;;;;;;14.14;100.00;97600.16;4485461;32;20161;-77
2023/10/31 04:24:21;;;;;;;11.10;4.65;;;;;;;14.14;100.00;97592.25;4486134;31;20164;-78
2023/10/31 04:26:49;;;;;;;9.38;5.03;;;;;;;14.12;100.00;97592.44;4485559;31;20497;-78
2023/10/31 04:29:18;;;;;;;7.30;3.92;;;;;;;14.15;100.00;97589.41;4472284;32;20112;-77
2023/10/31 04:31:45;;;;;;;10.85;4.90;;;;;;;14.02;100.00;97591.97;4469734;32;20124;-77
2023/10/31 04:34:13;;;;;;;9.13;4.45;;;;;;;14.01;99.77;97582.41;4469796;32;20390;-77
2023/10/31 04:36:40;;;;;;;10.57;5.12;;;;;;;14.14;99.23;97586.97;4469883;32;20108;-77
2023/10/31 04:39:10;;;;;;;11.18;4.75;;;;;;;14.13;99.98;97580.91;4470251;32;20097;-78
2023/10/31 04:41:37;;;;;;;7.75;4.45;;;;;;;14.05;100.00;97573.16;4469778;32;20753;-78
2023/10/31 04:44:05;;;;;;;10.75;5.60;;;;;;;14.01;100.00;97575.31;4469962;32;20146;-77
2023/10/31 04:46:36;;;;;;;10.85;5.22;;;;;;;14.11;98.15;97587.34;4469821;32;20085;-78
2023/10/31 04:49:04;;;;;;;9.18;5.20;;;;;;;14.12;98.57;97579.25;4469862;32;20430;-78
2023/10/31 04:51:35;;;;;;;12.57;5.45;;;;;;;14.21;98.21;97574.69;4470009;32;20096;-78
2023/10/31 04:54:03;;;;;;;12.82;5.00;;;;;;;14.29;97.95;97564.03;4470001;32;20587;-77
2023/10/31 04:56:31;;;;;;;11.20;5.35;;;;;;;14.17;99.21;97555.00;4469747;32;20111;-78
2023/10/31 04:58:58;;;;;;;10.38;5.00;;;;;;;14.18;100.00;97548.72;4469723;32;20537;-77
2023/10/31 05:01:26;;;;;;;8.68;4.90;;;;;;;14.15;98.47;97542.00;4469649;32;20162;-77
2023/10/31 05:03:54;;;;;;;24.52;6.85;;;;;;;14.28;98.44;97537.88;4469851;32;20088;-78
2023/10/31 05:06:37;;;;;;;9.68;4.47;;;;;;;14.20;98.48;97534.38;4469687;32;20092;-79
2023/10/31 05:09:04;;;;;;;7.30;4.12;;;;;;;14.19;99.06;97510.84;4469606;32;20089;-78
2023/10/31 05:11:32;;;;;;;9.98;4.82;;;;;;;14.19;98.30;97513.50;4469506;32;20122;-78
2023/10/31 05:13:59;;;;;;;18.95;4.75;;;;;;;14.17;98.08;97499.69;4469363;32;20155;-78
2023/10/31 05:16:26;;;;;;;8.30;5.10;;;;;;;14.18;97.40;97515.28;4475065;32;20099;-78
2023/10/31 05:18:53;;;;;;;9.65;4.70;;;;;;;14.21;98.22;97529.91;4485055;32;20391;-78
2023/10/31 05:21:21;;;;;;;13.32;5.32;;;;;;;14.26;96.86;97548.59;4484737;32;20111;-78
2023/10/31 05:23:49;;;;;;;10.02;4.50;;;;;;;14.12;98.28;97547.66;4484900;32;20140;-78
2023/10/31 05:26:17;;;;;;;13.88;5.50;;;;;;;14.08;98.75;97554.34;4485239;31;20084;-78
2023/10/31 05:28:45;;;;;;;10.70;4.47;;;;;;;14.01;100.00;97559.53;4475421;32;20549;-78
2023/10/31 05:31:15;;;;;;;5.93;4.00;;;;;;;13.93;100.00;97562.28;4469518;32;20119;-78
2023/10/31 05:33:43;;;;;;;7.50;4.07;;;;;;;14.07;100.00;97565.88;4469272;32;20097;-78
2023/10/31 05:36:21;;;;;;;11.80;5.03;;;;;;;14.01;100.00;97564.78;4469060;32;20136;-77
2023/10/31 05:38:48;;;;;;;11.32;4.60;;;;;;;13.80;100.00;97562.97;4469342;32;20088;-77
2023/10/31 05:41:16;;;;;;;9.98;4.80;;;;;;;13.59;100.00;97553.25;4469303;32;20149;-76
2023/10/31 05:43:43;;;;;;;5.68;3.80;;;;;;;13.57;100.00;97546.56;4469231;32;20157;-76
2023/10/31 05:46:12;;;;;;;9.57;4.10;;;;;;;13.73;100.00;97542.84;4469432;32;20127;-76
2023/10/31 05:48:44;;;;;;;15.88;4.40;;;;;;;13.73;100.00;97537.59;4469417;32;20678;-76
2023/10/31 05:51:17;;;;;;;8.13;5.00;;;;;;;13.84;100.00;97539.75;4475031;32;20118;-76
2023/10/31 05:53:48;;;;;;;9.25;4.15;;;;;;;13.70;100.00;97532.69;4476018;32;20092;-76
2023/10/31 05:56:16;;;;;;;8.50;4.82;;;;;;;13.82;100.00;97534.66;4475915;31;20092;-76
2023/10/31 05:58:45;;;;;;;8.85;3.78;;;;;;;13.83;100.00;97533.63;4476142;32;20455;-77
2023/10/31 06:01:12;;;;;;;9.45;3.67;;;;;;;13.76;100.00;97526.69;4476084;31;20095;-76
2023/10/31 06:03:43;;;;;;;6.03;3.92;;;;;;;13.69;100.00;97526.63;4477203;32;20100;-76
2023/10/31 06:06:12;;;;;;;5.62;3.72;;;;;;;13.85;100.00;97525.56;4476751;32;20092;-76
2023/10/31 06:08:41;;;;;;;6.95;4.10;;;;;;;13.76;100.00;97517.00;4473245;31;20628;-76
2023/10/31 06:11:12;;;;;;;10.80;3.45;;;;;;;13.78;100.00;97520.22;4468188;32;20100;-78
2023/10/31 06:13:40;;;;;;;20.75;4.35;;;;;;;13.87;100.00;97523.56;4479092;32;20143;-78
2023/10/31 06:16:07;;;;;;;8.80;3.62;;;;;;;13.91;100.00;97535.31;4481126;32;20172;-78
2023/10/31 06:18:35;;;;;;;8.90;3.37;;;;;;;13.81;100.00;97533.03;4469064;32;20089;-78
2023/10/31 06:21:03;;;;;;;6.32;3.22;;;;;;;13.99;100.00;97542.31;4474808;32;20205;-78
2023/10/31 06:23:31;;;;;;;7.35;3.53;;;;;;;14.17;100.00;97541.81;4481643;31;20184;-78
2023/10/31 06:26:00;;;;;;;6.10;3.72;;;;;;;14.20;100.00;97544.91;4478604;32;20570;-78
2023/10/31 06:28:28;;;;;;;5.87;3.67;;;;;;;14.11;100.00;97553.13;4483626;31;20100;-78
2023/10/31 06:30:57;;;;;;;8.98;3.67;;;;;;;14.18;100.00;97552.16;4482507;32;20104;-78
2023/10/31 06:33:24;;;;;;;6.37;4.20;;;;;;;14.23;100.00;97538.44;4484811;31;20087;-78
2023/10/31 06:35:53;;;;;;;6.90;4.45;;;;;;;14.25;100.00;97535.62;4484625;32;20454;-78
2023/10/31 06:38:22;;;;;;;6.07;3.20;;;;;;;14.28;100.00;97524.72;4485290;31;20076;-78
2023/10/31 06:40:49;;;;;;;6.93;3.60;;;;;;;14.29;100.00;97516.63;4484723;31;20100;-78
2023/10/31 06:43:17;;;;;;;8.75;3.33;;;;;;;14.23;100.00;97534.97;4484769;31;20152;-78
2023/10/31 06:45:44;;;;;;;10.38;3.40;;;;;;;14.16;100.00;97548.91;4484819;31;20419;-78
2023/10/31 06:48:12;;;;;;;5.80;3.42;;;;;;;14.13;100.00;97551.94;4484568;31;20085;-78
2023/10/31 06:50:40;;;;;;;8.65;3.30;;;;;;;14.11;100.00;97561.03;4484583;32;20824;-78
2023/10/31 06:53:09;;;;;;;7.72;3.12;;;;;;;14.24;100.00;97555.06;4484427;31;20087;-78
2023/10/31 06:55:38;;;;;;;8.82;3.00;;;;;;;14.31;100.00;97569.91;4484184;31;20488;-78
2023/10/31 06:58:06;;;;;;;7.37;3.08;;;;;;;14.45;100.00;97577.94;4468393;31;20092;-78
2023/10/31 07:00:33;;;;;;;8.75;3.25;;;;;;;14.29;100.00;97564.03;4467256;32;20104;-78
2023/10/31 07:03:06;;;;;;;6.93;3.17;;;;;;;14.30;100.00;97554.28;4466548;32;20135;-77
2023/10/31 07:05:34;;;;;;;4.78;2.80;;;;;;;14.28;100.00;97561.59;4467436;32;20101;-78
2023/10/31 07:08:03;;;;;;;8.00;3.00;;;;;;;14.35;100.00;97563.25;4467897;32;20160;-78
2023/10/31 07:10:31;;;;;;;6.40;2.70;;;;;;;14.53;100.00;97564.59;4468304;32;20518;-78
2023/10/31 07:12:58;;;;;;;8.60;3.17;;;;;;;14.59;99.33;97558.56;4467769;32;20621;-78
2023/10/31 07:15:27;;;;;;;6.57;3.10;;;;;;;14.66;99.09;97564.72;4467885;32;20470;-78
2023/10/31 07:17:56;;;;;;;5.22;2.30;;;;;;;14.60;97.79;97557.56;4467686;32;20161;-78
2023/10/31 07:20:24;;;;;;;3.70;2.20;;;;;;;14.79;96.40;97571.06;4468057;32;20105;-78
2023/10/31 07:22:51;;;;;;;5.75;1.95;;;;;;;14.70;97.65;97571.25;4468070;32;20576;-78
2023/10/31 07:25:21;;;;;;;4.87;2.45;;;;;;;15.02;95.58;97569.00;4467928;32;20192;-78
2023/10/31 07:27:49;;;;;;;4.53;2.17;;;;;;;14.97;96.23;97565.31;4471832;32;20123;-78
2023/10/31 07:30:17;;;;;;;4.37;2.22;;;;;;;14.95;96.73;97562.84;4483093;32;20158;-78
2023/10/31 07:32:48;;;;;;;8.05;2.80;;;;;;;15.07;95.83;97556.03;4481943;31;20100;-78
2023/10/31 07:35:16;;;;;;;5.00;2.70;;;;;;;14.99;95.40;97558.00;4482874;32;20619;-78
2023/10/31 07:37:43;;;;;;;4.72;2.35;;;;;;;15.07;94.80;97558.66;4477528;31;20466;-77
2023/10/31 07:40:12;;;;;;;2.80;1.85;;;;;;;14.98;96.96;97551.91;4469920;32;20488;-77
2023/10/31 07:42:40;;;;;;;4.87;2.33;;;;;;;15.06;96.11;97561.50;4469120;32;20107;-77
2023/10/31 07:45:08;;;;;;;7.72;2.20;;;;;;;14.95;97.09;97562.84;4469107;32;20097;-77
2023/10/31 07:47:37;;;;;;;6.32;2.42;;;;;;;14.89;96.27;97556.53;4470152;32;20638;-77
2023/10/31 07:50:06;;;;;;;7.37;2.70;;;;;;;14.98;96.98;97537.94;4469563;32;20096;-76
2023/10/31 07:52:33;;;;;;;3.58;2.00;;;;;;;15.38;95.61;97544.19;4469683;32;20180;-77
2023/10/31 07:55:01;;;;;;;5.78;2.35;;;;;;;15.71;92.62;97540.00;4468874;32;20101;-77
2023/10/31 07:57:29;;;;;;;7.07;2.87;;;;;;;15.73;93.54;97543.22;4469437;32;20085;-76
2023/10/31 07:59:56;;;;;;;4.97;2.22;;;;;;;15.70;95.54;97538.34;4467576;32;20089;-77
2023/10/31 08:02:24;;;;;;;5.05;2.20;;;;;;;15.86;93.38;97534.56;4469241;32;20157;-76
2023/10/31 08:04:52;;;;;;;4.80;1.75;;;;;;;15.77;93.03;97521.53;4478954;32;20123;-77
2023/10/31 08:07:20;;;;;;;4.35;2.10;;;;;;;15.68;92.22;97525.34;4485847;31;20148;-77
2023/10/31 08:09:48;;;;;;;4.22;2.33;;;;;;;15.69;94.49;97537.56;4485287;32;20107;-77
2023/10/31 08:12:17;;;;;;;3.15;2.00;;;;;;;15.62;95.63;97536.72;4485854;32;20479;-77
2023/10/31 08:14:48;;;;;;;3.78;2.00;;;;;;;15.49;95.60;97537.50;4485474;32;20192;-77
2023/10/31 08:17:16;;;;;;;7.75;2.62;;;;;;;15.44;95.44;97546.03;4474907;31;20096;-77
2023/10/31 08:19:46;;;;;;;5.25;2.05;;;;;;;15.47;95.88;97551.91;4469956;32;20089;-77
2023/10/31 08:22:13;;;;;;;6.95;2.35;;;;;;;15.68;94.33;97545.69;4469973;32;20482;-77
2023/10/31 08:24:42;;;;;;;7.57;2.85;;;;;;;15.74;92.86;97539.59;4470073;32;20089;-77
2023/10/31 08:27:11;;;;;;;6.37;2.00;;;;;;;15.84;93.97;97542.69;4469894;32;20092;-77
2023/10/31 08:29:38;;;;;;;4.22;2.28;;;;;;;15.97;94.74;97547.16;4469282;31;20613;-77
2023/10/31 08:32:08;;;;;;;4.68;2.20;;;;;;;16.21;90.55;97532.53;4469644;32;20092;-77
2023/10/31 08:34:37;;;;;;;5.12;2.50;;;;;;;16.28;90.58;97535.19;4468392;32;20115;-77
2023/10/31 08:37:05;;;;;;;6.32;2.40;;;;;;;16.32;92.02;97525.81;4469567;32;20153;-77
2023/10/31 08:39:33;;;;;;;7.03;2.97;;;;;;;16.51;89.28;97534.75;4469355;32;20085;-77
2023/10/31 08:42:01;;;;;;;3.92;2.62;;;;;;;16.67;87.35;97525.59;4469409;32;20473;-77
2023/10/31 08:44:28;;;;;;;3.78;2.37;;;;;;;16.73;86.69;97523.94;4468971;32;20089;-77
2023/10/31 08:46:58;;;;;;;7.43;2.58;;;;;;;16.88;85.51;97523.72;4469900;32;20142;-77
2023/10/31 08:49:25;;;;;;;3.10;1.80;;;;;;;16.85;86.50;97528.38;4479022;32;20100;-77
2023/10/31 08:51:52;;;;;;;5.12;2.53;;;;;;;16.77;86.68;97528.59;4475391;31;20104;-77
2023/10/31 08:54:20;;;;;;;5.05;2.35;;;;;;;16.90;86.45;97524.34;4468877;32;20096;-77
2023/10/31 08:56:47;;;;;;;4.47;2.12;;;;;;;17.08;85.53;97524.47;4469160;32;20112;-77
2023/10/31 08:59:14;;;;;;;4.62;2.22;;;;;;;17.26;84.14;97520.31;4469350;32;20092;-77
2023/10/31 09:01:48;;;;;;;5.12;2.60;;;;;;;17.16;84.80;97516.28;4469076;32;20553;-77
2023/10/31 09:04:15;;;;;;;6.62;2.03;;;;;;;17.49;82.57;97506.59;4469301;32;20139;-77
2023/10/31 09:06:42;;;;;;;4.95;2.08;;;;;;;17.41;84.09;97496.22;4484767;32;20093;-78
2023/10/31 09:09:10;;;;;;;5.10;2.25;;;;;;;17.38;85.49;97508.03;4485208;32;20096;-77
2023/10/31 09:11:37;;;;;;;4.68;1.90;;;;;;;17.48;84.20;97513.69;4484615;31;20594;-78
2023/10/31 09:14:06;;;;;;;4.75;2.20;;;;;;;17.43;81.22;97515.38;4484455;32;20084;-77
2023/10/31 09:16:34;;;;;;;9.38;1.98;;;;;;;17.41;81.01;97512.94;4477790;32;20562;-77
2023/10/31 09:19:03;;;;;;;7.68;2.70;;;;;;;17.65;80.94;97505.25;4468360;32;20525;-77
2023/10/31 09:21:31;;;;;;;5.60;2.20;;;;;;;17.86;81.06;97494.28;4467905;32;20076;-77
2023/10/31 09:23:58;;;;;;;8.43;2.65;;;;;;;17.64;79.70;97493.03;4468663;32;20088;-77
2023/10/31 09:26:25;;;;;;;4.78;2.30;;;;;;;17.66;81.78;97493.63;4468383;32;20100;-77
2023/10/31 09:28:54;;;;;;;8.30;2.35;;;;;;;17.62;81.42;97490.59;4479580;32;20506;-77
2023/10/31 09:31:23;;;;;;;6.35;2.53;;;;;;;17.73;82.22;97479.31;4483964;31;20505;-77
2023/10/31 09:33:52;;;;;;;9.18;2.90;;;;;;;17.84;81.34;97475.16;4483810;31;20688;-77
2023/10/31 09:36:20;;;;;;;5.87;2.00;;;;;;;18.06;79.66;97477.47;4484518;31;20093;-77
2023/10/31 09:38:52;;;;;;;5.55;1.98;;;;;;;18.06;81.26;97469.50;4484906;32;20100;-77
2023/10/31 09:41:20;;;;;;;10.30;2.50;;;;;;;18.05;80.55;97467.91;4484392;32;20131;-77
2023/10/31 09:43:50;;;;;;;5.62;2.97;;;;;;;18.08;79.92;97467.47;4483542;31;20088;-77
2023/10/31 09:46:17;;;;;;;5.62;2.42;;;;;;;17.90;79.66;97453.13;4483252;32;20080;-77
2023/10/31 09:48:47;;;;;;;9.25;2.42;;;;;;;17.99;82.56;97450.22;4483353;32;20101;-77
2023/10/31 09:51:17;;;;;;;7.93;2.20;;;;;;;18.01;79.96;97453.47;4483217;32;20160;-77
2023/10/31 09:53:45;;;;;;;7.55;1.92;;;;;;;18.04;80.56;97450.38;4484141;31;20460;-77
2023/10/31 09:56:14;;;;;;;3.58;2.15;;;;;;;18.13;80.52;97446.41;4483181;32;20092;-78
2023/10/31 09:58:41;;;;;;;7.30;2.75;;;;;;;18.16;80.04;97445.19;4483929;31;20169;-78
2023/10/31 10:01:12;;;;;;;5.45;2.00;;;;;;;17.97;78.83;97436.38;4483396;32;20139;-78
2023/10/31 10:03:40;;;;;;;7.90;2.08;;;;;;;18.06;78.95;97419.16;4482892;31;20115;-78
2023/10/31 10:06:07;;;;;;;5.18;1.90;;;;;;;18.22;79.53;97415.94;4484568;31;20092;-78
2023/10/31 10:08:38;;;;;;;5.72;2.37;;;;;;;18.38;78.19;97400.47;4483335;32;20121;-79
2023/10/31 10:11:07;;;;;;;14.45;2.85;;;;;;;18.26;79.40;97393.28;4484207;31;20096;-78
2023/10/31 10:13:35;;;;;;;3.95;2.00;;;;;;;18.44;77.77;97394.31;4483500;31;20114;-78
2023/10/31 10:16:03;;;;;;;9.77;2.10;;;;;;;18.49;78.13;97388.34;4481474;32;20178;-78
2023/10/31 10:18:32;;;;;;;6.80;1.90;;;;;;;18.49;76.14;97375.88;4468614;32;20152;-78
2023/10/31 10:21:03;;;;;;;4.45;1.85;;;;;;;18.56;77.48;97366.00;4468601;32;20448;-78
2023/10/31 10:23:30;;;;;;;6.12;1.98;;;;;;;18.58;76.76;97348.03;4468519;32;20085;-78
2023/10/31 10:26:03;;;;;;;6.70;2.20;;;;;;;18.70;77.26;97344.59;4466568;32;20106;-79
2023/10/31 10:28:50;;;;;;;5.05;1.95;;;;;;;19.02;76.39;97337.25;4479078;32;20096;-78
2023/10/31 10:31:23;;;;;;;6.78;2.60;;;;;;;18.81;73.70;97322.62;4485001;31;20088;-78
2023/10/31 10:33:51;;;;;;;5.70;2.30;;;;;;;19.24;75.25;97313.66;4484392;31;20453;-78
2023/10/31 10:36:19;;;;;;;4.68;2.90;;;;;;;18.92;75.38;97311.25;4483488;32;20857;-78
2023/10/31 10:38:48;;;;;;;5.43;2.65;;;;;;;19.07;75.84;97310.03;4481727;32;20100;-78
2023/10/31 10:41:19;;;;;;;6.22;3.15;;;;;;;18.94;74.68;97317.16;4483652;31;20456;-78
2023/10/31 10:43:47;;;;;;;7.28;2.55;;;;;;;18.92;75.04;97321.06;4484182;31;20105;-78
2023/10/31 10:46:17;;;;;;;4.47;2.35;;;;;;;18.79;nan;97314.09;4482446;32;20088;-78
2023/10/31 10:48:49;;;;;;;3.87;2.58;;;;;;;18.98;73.87;97312.19;4482996;32;20097;-78
2023/10/31 10:51:42;;;;;;;6.07;2.60;;;;;;;18.80;72.81;97311.22;4483006;32;20130;-78
2023/10/31 10:54:16;;;;;;;8.02;3.37;;;;;;;18.58;74.53;97289.69;4484269;31;20724;-78
2023/10/31 10:56:55;;;;;;;10.30;3.85;;;;;;;18.77;74.95;97290.44;4483472;32;20111;-78
2023/10/31 10:59:54;;;;;;;5.28;3.00;;;;;;;18.97;73.75;97300.78;4484332;31;20453;-78
2023/10/31 11:02:22;;;;;;;6.05;3.08;;;;;;;18.62;75.93;97297.97;4483433;32;20103;-78
2023/10/31 11:04:52;;;;;;;4.10;2.15;;;;;;;18.57;75.86;97277.44;4470966;32;20454;-78
2023/10/31 11:07:20;;;;;;;5.50;2.40;;;;;;;18.50;75.96;97278.56;4466846;32;20114;-78
2023/10/31 11:09:50;;;;;;;4.45;1.85;;;;;;;18.78;73.76;97288.59;4467422;32;20096;-78
2023/10/31 11:12:18;;;;;;;4.80;2.22;;;;;;;18.78;70.65;97304.50;4475104;32;20091;-78
2023/10/31 11:14:46;;;;;;;4.40;1.70;;;;;;;18.72;70.45;97321.34;4482136;31;20231;-75
2023/10/31 11:17:24;;;;;;;3.20;1.80;;;;;;;18.59;72.14;97322.31;4470426;32;20474;-78
2023/10/31 11:19:53;;;;;;;6.75;2.03;;;;;;;18.33;73.78;97326.09;4466812;32;20172;-78
2023/10/31 11:22:21;;;;;;;4.40;1.80;;;;;;;18.56;81.61;97305.00;4465415;32;20109;-78
2023/10/31 11:24:51;;;;;;;6.62;2.28;;;;;;;18.61;83.33;97299.84;4467091;32;20475;-78
2023/10/31 11:27:18;;;;;;;11.35;2.47;;;;;;;18.46;86.03;97275.56;4468973;32;20158;-78
2023/10/31 11:29:47;;;;;;;11.20;4.05;;;;;;;18.41;90.14;97262.16;4484211;32;20143;-78
2023/10/31 11:32:15;;;;;;;3.65;2.10;;;;;;;18.14;94.65;97236.00;4484225;31;20083;-78
2023/10/31 11:34:44;;;;;;;5.82;2.58;;;;;;;18.09;98.09;97212.00;4484068;32;20148;-78